sensor_id;sensor_type;location;lat;lon;timestamp;P1;durP1;ratioP1;P2;durP2;ratioP2
6850;SDS011;3464;42.728;23.296;2022-07-17T00:02:19;13.40;;;5.40;;
6850;SDS011;3464;42.728;23.296;2022-07-17T00:05:08;12.63;;;5.20;;
6850;SDS011;3464;42.728;23.296;2022-07-17T00:07:57;13.17;;;5.43;;
6850;SDS011;3464;42.728;23.296;2022-07-17T00:10:46;13.10;;;5.40;;
6850;SDS011;3464;42.728;23.296;2022-07-17T00:13:36;16.17;;;5.20;;
6850;SDS011;3464;42.728;23.296;2022-07-17T00:16:26;14.00;;;5.50;;
6850;SDS011;3464;42.728;23.296;2022-07-17T00:19:15;11.73;;;4.80;;
6850;SDS011;3464;42.728;23.296;2022-07-17T00:22:04;12.67;;;5.00;;
6850;SDS011;3464;42.728;23.296;2022-07-17T00:24:54;11.97;;;4.53;;
6850;SDS011;3464;42.728;23.296;2022-07-17T00:27:44;12.23;;;4.10;;
6850;SDS011;3464;42.728;23.296;2022-07-17T00:30:34;12.87;;;3.97;;
6850;SDS011;3464;42.728;23.296;2022-07-17T00:33:23;11.43;;;3.70;;
6850;SDS011;3464;42.728;23.296;2022-07-17T00:36:12;11.30;;;4.20;;
6850;SDS011;3464;42.728;23.296;2022-07-17T00:39:01;10.50;;;4.27;;
6850;SDS011;3464;42.728;23.296;2022-07-17T00:41:50;10.87;;;4.50;;
6850;SDS011;3464;42.728;23.296;2022-07-17T00:44:40;10.00;;;3.83;;
6850;SDS011;3464;42.728;23.296;2022-07-17T00:47:28;12.13;;;4.20;;
6850;SDS011;3464;42.728;23.296;2022-07-17T00:50:24;15.37;;;4.13;;
6850;SDS011;3464;42.728;23.296;2022-07-17T00:53:12;10.80;;;4.23;;
6850;SDS011;3464;42.728;23.296;2022-07-17T00:56:03;10.47;;;3.80;;
6850;SDS011;3464;42.728;23.296;2022-07-17T00:58:51;12.37;;;3.33;;
6850;SDS011;3464;42.728;23.296;2022-07-17T01:01:41;10.87;;;4.00;;
6850;SDS011;3464;42.728;23.296;2022-07-17T01:04:31;11.50;;;4.00;;
6850;SDS011;3464;42.728;23.296;2022-07-17T01:07:20;9.70;;;3.70;;
6850;SDS011;3464;42.728;23.296;2022-07-17T01:10:09;16.93;;;3.80;;
6850;SDS011;3464;42.728;23.296;2022-07-17T01:12:59;11.17;;;3.67;;
6850;SDS011;3464;42.728;23.296;2022-07-17T01:15:48;10.90;;;3.83;;
6850;SDS011;3464;42.728;23.296;2022-07-17T01:18:37;9.93;;;3.90;;
6850;SDS011;3464;42.728;23.296;2022-07-17T01:21:36;13.30;;;4.10;;
6850;SDS011;3464;42.728;23.296;2022-07-17T01:24:19;10.20;;;3.43;;
6850;SDS011;3464;42.728;23.296;2022-07-17T01:27:08;9.40;;;3.57;;
6850;SDS011;3464;42.728;23.296;2022-07-17T01:29:57;10.80;;;3.80;;
6850;SDS011;3464;42.728;23.296;2022-07-17T01:32:47;10.10;;;3.63;;
6850;SDS011;3464;42.728;23.296;2022-07-17T01:35:36;10.60;;;3.57;;
6850;SDS011;3464;42.728;23.296;2022-07-17T01:38:25;13.77;;;3.93;;
6850;SDS011;3464;42.728;23.296;2022-07-17T01:41:14;13.43;;;3.90;;
6850;SDS011;3464;42.728;23.296;2022-07-17T01:44:03;10.23;;;3.80;;
6850;SDS011;3464;42.728;23.296;2022-07-17T01:46:52;10.93;;;4.10;;
6850;SDS011;3464;42.728;23.296;2022-07-17T01:49:45;12.47;;;3.87;;
6850;SDS011;3464;42.728;23.296;2022-07-17T01:52:35;16.80;;;4.00;;
6850;SDS011;3464;42.728;23.296;2022-07-17T01:55:23;13.60;;;3.90;;
6850;SDS011;3464;42.728;23.296;2022-07-17T01:58:12;10.93;;;4.00;;
6850;SDS011;3464;42.728;23.296;2022-07-17T02:01:01;14.50;;;4.33;;
6850;SDS011;3464;42.728;23.296;2022-07-17T02:03:50;9.40;;;3.70;;
6850;SDS011;3464;42.728;23.296;2022-07-17T02:06:40;10.90;;;3.73;;
6850;SDS011;3464;42.728;23.296;2022-07-17T02:09:30;11.90;;;3.60;;
6850;SDS011;3464;42.728;23.296;2022-07-17T02:12:20;11.97;;;4.10;;
6850;SDS011;3464;42.728;23.296;2022-07-17T02:15:09;10.90;;;3.90;;
6850;SDS011;3464;42.728;23.296;2022-07-17T02:17:59;12.50;;;3.87;;
6850;SDS011;3464;42.728;23.296;2022-07-17T02:20:48;12.10;;;3.93;;
6850;SDS011;3464;42.728;23.296;2022-07-17T02:23:37;14.47;;;4.20;;
6850;SDS011;3464;42.728;23.296;2022-07-17T02:26:25;11.70;;;3.87;;
6850;SDS011;3464;42.728;23.296;2022-07-17T02:29:14;12.10;;;4.07;;
6850;SDS011;3464;42.728;23.296;2022-07-17T02:32:04;13.00;;;4.20;;
6850;SDS011;3464;42.728;23.296;2022-07-17T02:34:52;9.70;;;3.30;;
6850;SDS011;3464;42.728;23.296;2022-07-17T02:37:42;11.90;;;3.40;;
6850;SDS011;3464;42.728;23.296;2022-07-17T02:40:31;12.03;;;4.53;;
6850;SDS011;3464;42.728;23.296;2022-07-17T02:43:20;11.90;;;3.60;;
6850;SDS011;3464;42.728;23.296;2022-07-17T02:46:10;10.80;;;3.90;;
6850;SDS011;3464;42.728;23.296;2022-07-17T02:48:59;10.80;;;3.47;;
6850;SDS011;3464;42.728;23.296;2022-07-17T02:51:49;12.23;;;4.17;;
6850;SDS011;3464;42.728;23.296;2022-07-17T02:54:38;12.83;;;4.43;;
6850;SDS011;3464;42.728;23.296;2022-07-17T02:57:27;11.20;;;3.60;;
6850;SDS011;3464;42.728;23.296;2022-07-17T03:00:17;11.93;;;4.10;;
6850;SDS011;3464;42.728;23.296;2022-07-17T03:03:06;10.40;;;3.70;;
6850;SDS011;3464;42.728;23.296;2022-07-17T03:05:55;10.10;;;3.77;;
6850;SDS011;3464;42.728;23.296;2022-07-17T03:08:45;11.20;;;3.80;;
6850;SDS011;3464;42.728;23.296;2022-07-17T03:11:35;10.10;;;3.60;;
6850;SDS011;3464;42.728;23.296;2022-07-17T03:14:24;13.20;;;4.70;;
6850;SDS011;3464;42.728;23.296;2022-07-17T03:17:13;11.60;;;3.70;;
6850;SDS011;3464;42.728;23.296;2022-07-17T03:20:03;11.90;;;3.80;;
6850;SDS011;3464;42.728;23.296;2022-07-17T03:22:53;11.97;;;4.70;;
6850;SDS011;3464;42.728;23.296;2022-07-17T03:25:42;9.87;;;4.00;;
6850;SDS011;3464;42.728;23.296;2022-07-17T03:28:31;12.87;;;3.90;;
6850;SDS011;3464;42.728;23.296;2022-07-17T03:31:21;13.07;;;3.83;;
6850;SDS011;3464;42.728;23.296;2022-07-17T03:34:11;11.93;;;4.00;;
6850;SDS011;3464;42.728;23.296;2022-07-17T03:37:00;10.83;;;4.40;;
6850;SDS011;3464;42.728;23.296;2022-07-17T03:39:50;10.97;;;3.53;;
6850;SDS011;3464;42.728;23.296;2022-07-17T03:42:38;13.80;;;4.10;;
6850;SDS011;3464;42.728;23.296;2022-07-17T03:45:28;10.53;;;3.63;;
6850;SDS011;3464;42.728;23.296;2022-07-17T03:48:18;15.33;;;4.07;;
6850;SDS011;3464;42.728;23.296;2022-07-17T03:51:07;12.43;;;3.30;;
6850;SDS011;3464;42.728;23.296;2022-07-17T03:53:56;13.50;;;3.60;;
6850;SDS011;3464;42.728;23.296;2022-07-17T03:56:45;13.73;;;3.40;;
6850;SDS011;3464;42.728;23.296;2022-07-17T03:59:34;14.57;;;3.90;;
6850;SDS011;3464;42.728;23.296;2022-07-17T04:02:23;14.10;;;3.40;;
6850;SDS011;3464;42.728;23.296;2022-07-17T04:05:13;10.43;;;3.73;;
6850;SDS011;3464;42.728;23.296;2022-07-17T04:08:02;12.23;;;3.67;;
6850;SDS011;3464;42.728;23.296;2022-07-17T04:10:52;11.03;;;3.20;;
6850;SDS011;3464;42.728;23.296;2022-07-17T04:13:42;10.23;;;3.63;;
6850;SDS011;3464;42.728;23.296;2022-07-17T04:16:31;9.97;;;3.23;;
6850;SDS011;3464;42.728;23.296;2022-07-17T04:19:20;14.87;;;3.53;;
6850;SDS011;3464;42.728;23.296;2022-07-17T04:22:10;11.73;;;3.53;;
6850;SDS011;3464;42.728;23.296;2022-07-17T04:25:00;13.83;;;3.33;;
6850;SDS011;3464;42.728;23.296;2022-07-17T04:27:49;16.33;;;3.40;;
6850;SDS011;3464;42.728;23.296;2022-07-17T04:30:38;10.90;;;2.97;;
6850;SDS011;3464;42.728;23.296;2022-07-17T04:33:28;12.33;;;3.37;;
6850;SDS011;3464;42.728;23.296;2022-07-17T04:36:19;15.37;;;3.40;;
6850;SDS011;3464;42.728;23.296;2022-07-17T04:39:09;12.73;;;3.60;;
6850;SDS011;3464;42.728;23.296;2022-07-17T04:41:59;12.20;;;3.07;;
6850;SDS011;3464;42.728;23.296;2022-07-17T04:44:48;14.30;;;3.33;;
6850;SDS011;3464;42.728;23.296;2022-07-17T04:47:38;10.10;;;3.17;;
6850;SDS011;3464;42.728;23.296;2022-07-17T04:50:28;12.20;;;3.57;;
6850;SDS011;3464;42.728;23.296;2022-07-17T04:53:17;11.43;;;3.47;;
6850;SDS011;3464;42.728;23.296;2022-07-17T04:56:07;14.13;;;3.30;;
6850;SDS011;3464;42.728;23.296;2022-07-17T04:58:56;12.87;;;3.60;;
6850;SDS011;3464;42.728;23.296;2022-07-17T05:01:45;13.00;;;3.40;;
6850;SDS011;3464;42.728;23.296;2022-07-17T05:04:35;12.03;;;3.27;;
6850;SDS011;3464;42.728;23.296;2022-07-17T05:07:24;13.43;;;3.37;;
6850;SDS011;3464;42.728;23.296;2022-07-17T05:10:14;12.23;;;3.03;;
6850;SDS011;3464;42.728;23.296;2022-07-17T05:13:03;12.33;;;3.63;;
6850;SDS011;3464;42.728;23.296;2022-07-17T05:15:51;11.10;;;2.80;;
6850;SDS011;3464;42.728;23.296;2022-07-17T05:18:41;11.10;;;3.07;;
6850;SDS011;3464;42.728;23.296;2022-07-17T05:21:29;12.13;;;2.90;;
6850;SDS011;3464;42.728;23.296;2022-07-17T05:24:18;11.30;;;3.50;;
6850;SDS011;3464;42.728;23.296;2022-07-17T05:27:08;11.40;;;3.60;;
6850;SDS011;3464;42.728;23.296;2022-07-17T05:29:58;14.47;;;3.60;;
6850;SDS011;3464;42.728;23.296;2022-07-17T05:32:47;11.90;;;3.50;;
6850;SDS011;3464;42.728;23.296;2022-07-17T05:35:37;18.47;;;3.97;;
6850;SDS011;3464;42.728;23.296;2022-07-17T05:38:27;14.47;;;3.97;;
6850;SDS011;3464;42.728;23.296;2022-07-17T05:41:17;11.70;;;3.37;;
6850;SDS011;3464;42.728;23.296;2022-07-17T05:44:06;11.67;;;3.23;;
6850;SDS011;3464;42.728;23.296;2022-07-17T05:46:54;10.80;;;3.20;;
6850;SDS011;3464;42.728;23.296;2022-07-17T05:49:46;10.77;;;3.13;;
6850;SDS011;3464;42.728;23.296;2022-07-17T05:52:35;10.47;;;2.97;;
6850;SDS011;3464;42.728;23.296;2022-07-17T05:55:25;9.63;;;2.80;;
6850;SDS011;3464;42.728;23.296;2022-07-17T05:58:15;10.43;;;2.80;;
6850;SDS011;3464;42.728;23.296;2022-07-17T06:01:04;10.20;;;2.87;;
6850;SDS011;3464;42.728;23.296;2022-07-17T06:03:53;12.43;;;3.10;;
6850;SDS011;3464;42.728;23.296;2022-07-17T06:06:42;12.23;;;3.40;;
6850;SDS011;3464;42.728;23.296;2022-07-17T06:09:31;10.90;;;3.03;;
6850;SDS011;3464;42.728;23.296;2022-07-17T06:12:20;12.10;;;3.27;;
6850;SDS011;3464;42.728;23.296;2022-07-17T06:15:09;11.47;;;3.40;;
6850;SDS011;3464;42.728;23.296;2022-07-17T06:18:01;11.97;;;3.10;;
6850;SDS011;3464;42.728;23.296;2022-07-17T06:20:50;9.60;;;2.50;;
6850;SDS011;3464;42.728;23.296;2022-07-17T06:23:39;13.03;;;2.70;;
6850;SDS011;3464;42.728;23.296;2022-07-17T06:26:29;8.70;;;2.50;;
6850;SDS011;3464;42.728;23.296;2022-07-17T06:29:18;9.03;;;2.50;;
6850;SDS011;3464;42.728;23.296;2022-07-17T06:32:06;10.63;;;2.90;;
6850;SDS011;3464;42.728;23.296;2022-07-17T06:34:55;13.10;;;2.80;;
6850;SDS011;3464;42.728;23.296;2022-07-17T06:37:44;10.63;;;2.80;;
6850;SDS011;3464;42.728;23.296;2022-07-17T06:40:34;9.90;;;2.60;;
6850;SDS011;3464;42.728;23.296;2022-07-17T06:43:23;11.73;;;2.83;;
6850;SDS011;3464;42.728;23.296;2022-07-17T06:46:12;10.10;;;2.70;;
6850;SDS011;3464;42.728;23.296;2022-07-17T06:49:02;10.47;;;2.70;;
6850;SDS011;3464;42.728;23.296;2022-07-17T06:51:52;9.80;;;2.80;;
6850;SDS011;3464;42.728;23.296;2022-07-17T06:54:42;9.63;;;2.83;;
6850;SDS011;3464;42.728;23.296;2022-07-17T06:57:31;10.50;;;3.13;;
6850;SDS011;3464;42.728;23.296;2022-07-17T07:00:20;9.80;;;2.80;;
6850;SDS011;3464;42.728;23.296;2022-07-17T07:03:09;9.30;;;2.83;;
6850;SDS011;3464;42.728;23.296;2022-07-17T07:05:58;10.70;;;2.80;;
6850;SDS011;3464;42.728;23.296;2022-07-17T07:08:48;9.90;;;3.00;;
6850;SDS011;3464;42.728;23.296;2022-07-17T07:11:38;9.93;;;3.10;;
6850;SDS011;3464;42.728;23.296;2022-07-17T07:14:28;10.90;;;2.80;;
6850;SDS011;3464;42.728;23.296;2022-07-17T07:17:18;10.23;;;2.97;;
6850;SDS011;3464;42.728;23.296;2022-07-17T07:20:08;8.70;;;2.50;;
6850;SDS011;3464;42.728;23.296;2022-07-17T07:22:57;10.33;;;2.93;;
6850;SDS011;3464;42.728;23.296;2022-07-17T07:25:47;12.53;;;3.30;;
6850;SDS011;3464;42.728;23.296;2022-07-17T07:28:36;9.27;;;2.90;;
6850;SDS011;3464;42.728;23.296;2022-07-17T07:31:25;13.03;;;3.03;;
6850;SDS011;3464;42.728;23.296;2022-07-17T07:34:14;12.30;;;3.20;;
6850;SDS011;3464;42.728;23.296;2022-07-17T07:37:03;12.13;;;2.80;;
6850;SDS011;3464;42.728;23.296;2022-07-17T07:39:52;13.20;;;2.87;;
6850;SDS011;3464;42.728;23.296;2022-07-17T07:42:43;9.90;;;2.90;;
6850;SDS011;3464;42.728;23.296;2022-07-17T07:45:33;11.60;;;3.03;;
6850;SDS011;3464;42.728;23.296;2022-07-17T07:48:22;13.10;;;2.97;;
6850;SDS011;3464;42.728;23.296;2022-07-17T07:51:10;9.93;;;3.00;;
6850;SDS011;3464;42.728;23.296;2022-07-17T07:54:00;10.27;;;2.97;;
6850;SDS011;3464;42.728;23.296;2022-07-17T07:56:51;11.13;;;2.90;;
6850;SDS011;3464;42.728;23.296;2022-07-17T07:59:41;10.23;;;2.97;;
6850;SDS011;3464;42.728;23.296;2022-07-17T08:02:29;13.60;;;3.30;;
6850;SDS011;3464;42.728;23.296;2022-07-17T08:05:18;10.20;;;2.87;;
6850;SDS011;3464;42.728;23.296;2022-07-17T08:08:07;9.27;;;2.70;;
6850;SDS011;3464;42.728;23.296;2022-07-17T08:10:57;9.93;;;3.00;;
6850;SDS011;3464;42.728;23.296;2022-07-17T08:13:45;12.43;;;3.80;;
6850;SDS011;3464;42.728;23.296;2022-07-17T08:16:35;13.00;;;3.17;;
6850;SDS011;3464;42.728;23.296;2022-07-17T08:19:24;11.23;;;2.90;;
6850;SDS011;3464;42.728;23.296;2022-07-17T08:22:13;10.00;;;2.90;;
6850;SDS011;3464;42.728;23.296;2022-07-17T08:25:02;15.97;;;3.10;;
6850;SDS011;3464;42.728;23.296;2022-07-17T08:27:50;11.13;;;3.20;;
6850;SDS011;3464;42.728;23.296;2022-07-17T08:30:39;12.17;;;3.43;;
6850;SDS011;3464;42.728;23.296;2022-07-17T08:33:29;11.10;;;3.07;;
6850;SDS011;3464;42.728;23.296;2022-07-17T08:36:19;11.20;;;3.70;;
6850;SDS011;3464;42.728;23.296;2022-07-17T08:39:08;12.90;;;3.20;;
6850;SDS011;3464;42.728;23.296;2022-07-17T08:41:58;13.50;;;3.10;;
6850;SDS011;3464;42.728;23.296;2022-07-17T08:44:47;10.80;;;3.20;;
6850;SDS011;3464;42.728;23.296;2022-07-17T08:47:37;9.90;;;3.00;;
6850;SDS011;3464;42.728;23.296;2022-07-17T08:50:27;18.30;;;3.67;;
6850;SDS011;3464;42.728;23.296;2022-07-17T08:53:16;13.57;;;3.73;;
6850;SDS011;3464;42.728;23.296;2022-07-17T08:56:05;10.30;;;3.20;;
6850;SDS011;3464;42.728;23.296;2022-07-17T08:58:54;10.93;;;3.10;;
6850;SDS011;3464;42.728;23.296;2022-07-17T09:01:43;12.80;;;3.33;;
6850;SDS011;3464;42.728;23.296;2022-07-17T09:04:33;12.10;;;3.67;;
6850;SDS011;3464;42.728;23.296;2022-07-17T09:07:22;11.13;;;3.63;;
6850;SDS011;3464;42.728;23.296;2022-07-17T09:10:12;10.50;;;3.00;;
6850;SDS011;3464;42.728;23.296;2022-07-17T09:13:14;11.80;;;3.03;;
6850;SDS011;3464;42.728;23.296;2022-07-17T09:16:11;10.87;;;3.30;;
6850;SDS011;3464;42.728;23.296;2022-07-17T09:19:01;13.03;;;3.67;;
6850;SDS011;3464;42.728;23.296;2022-07-17T09:21:50;13.57;;;3.67;;
6850;SDS011;3464;42.728;23.296;2022-07-17T09:24:48;11.27;;;3.20;;
6850;SDS011;3464;42.728;23.296;2022-07-17T09:27:37;12.20;;;4.40;;
6850;SDS011;3464;42.728;23.296;2022-07-17T09:33:43;10.60;;;3.07;;
6850;SDS011;3464;42.728;23.296;2022-07-17T09:36:32;11.80;;;3.10;;
6850;SDS011;3464;42.728;23.296;2022-07-17T09:39:22;10.87;;;2.90;;
6850;SDS011;3464;42.728;23.296;2022-07-17T09:42:22;10.80;;;4.07;;
6850;SDS011;3464;42.728;23.296;2022-07-17T09:45:17;12.80;;;2.80;;
6850;SDS011;3464;42.728;23.296;2022-07-17T09:48:07;11.03;;;3.20;;
6850;SDS011;3464;42.728;23.296;2022-07-17T09:50:56;11.20;;;3.27;;
6850;SDS011;3464;42.728;23.296;2022-07-17T09:53:46;10.50;;;3.00;;
6850;SDS011;3464;42.728;23.296;2022-07-17T09:56:37;12.60;;;3.17;;
6850;SDS011;3464;42.728;23.296;2022-07-17T10:02:42;12.80;;;3.30;;
6850;SDS011;3464;42.728;23.296;2022-07-17T10:05:40;12.27;;;3.47;;
6850;SDS011;3464;42.728;23.296;2022-07-17T10:08:30;10.00;;;3.13;;
6850;SDS011;3464;42.728;23.296;2022-07-17T10:11:19;10.40;;;3.27;;
6850;SDS011;3464;42.728;23.296;2022-07-17T10:14:11;11.30;;;3.00;;
6850;SDS011;3464;42.728;23.296;2022-07-17T10:17:06;10.83;;;3.20;;
6850;SDS011;3464;42.728;23.296;2022-07-17T10:19:56;11.33;;;4.00;;
6850;SDS011;3464;42.728;23.296;2022-07-17T10:22:46;11.53;;;3.07;;
6850;SDS011;3464;42.728;23.296;2022-07-17T10:25:35;12.23;;;3.10;;
6850;SDS011;3464;42.728;23.296;2022-07-17T10:28:25;14.60;;;3.00;;
6850;SDS011;3464;42.728;23.296;2022-07-17T10:31:27;10.90;;;3.43;;
6850;SDS011;3464;42.728;23.296;2022-07-17T10:34:17;17.37;;;3.70;;
6850;SDS011;3464;42.728;23.296;2022-07-17T10:37:17;13.90;;;3.47;;
6850;SDS011;3464;42.728;23.296;2022-07-17T10:40:07;10.40;;;2.60;;
6850;SDS011;3464;42.728;23.296;2022-07-17T10:43:04;9.60;;;3.20;;
6850;SDS011;3464;42.728;23.296;2022-07-17T10:46:04;9.60;;;3.23;;
6850;SDS011;3464;42.728;23.296;2022-07-17T10:48:53;9.20;;;2.80;;
6850;SDS011;3464;42.728;23.296;2022-07-17T10:51:43;10.20;;;2.97;;
6850;SDS011;3464;42.728;23.296;2022-07-17T10:54:33;12.33;;;4.33;;
6850;SDS011;3464;42.728;23.296;2022-07-17T10:57:24;10.00;;;3.20;;
6850;SDS011;3464;42.728;23.296;2022-07-17T11:00:14;13.30;;;3.00;;
6850;SDS011;3464;42.728;23.296;2022-07-17T11:03:09;11.10;;;3.17;;
6850;SDS011;3464;42.728;23.296;2022-07-17T11:09:11;10.63;;;3.10;;
6850;SDS011;3464;42.728;23.296;2022-07-17T11:12:06;13.53;;;3.17;;
6850;SDS011;3464;42.728;23.296;2022-07-17T11:15:02;10.60;;;3.83;;
6850;SDS011;3464;42.728;23.296;2022-07-17T11:17:59;13.27;;;2.93;;
6850;SDS011;3464;42.728;23.296;2022-07-17T11:20:57;10.60;;;3.60;;
6850;SDS011;3464;42.728;23.296;2022-07-17T11:23:58;11.10;;;3.03;;
6850;SDS011;3464;42.728;23.296;2022-07-17T11:26:48;11.73;;;3.10;;
6850;SDS011;3464;42.728;23.296;2022-07-17T11:29:38;11.67;;;2.97;;
6850;SDS011;3464;42.728;23.296;2022-07-17T11:32:33;11.10;;;2.57;;
6850;SDS011;3464;42.728;23.296;2022-07-17T11:38:43;9.40;;;2.90;;
6850;SDS011;3464;42.728;23.296;2022-07-17T11:41:46;11.90;;;3.20;;
6850;SDS011;3464;42.728;23.296;2022-07-17T11:44:42;9.57;;;2.87;;
6850;SDS011;3464;42.728;23.296;2022-07-17T11:47:47;9.97;;;3.00;;
6850;SDS011;3464;42.728;23.296;2022-07-17T11:50:53;12.40;;;3.17;;
6850;SDS011;3464;42.728;23.296;2022-07-17T11:53:52;12.23;;;2.93;;
6850;SDS011;3464;42.728;23.296;2022-07-17T11:56:55;10.03;;;3.40;;
6850;SDS011;3464;42.728;23.296;2022-07-17T12:02:57;11.07;;;3.20;;
6850;SDS011;3464;42.728;23.296;2022-07-17T12:05:40;9.97;;;3.07;;
6850;SDS011;3464;42.728;23.296;2022-07-17T12:08:30;9.47;;;3.03;;
6850;SDS011;3464;42.728;23.296;2022-07-17T12:11:22;10.00;;;2.80;;
6850;SDS011;3464;42.728;23.296;2022-07-17T12:14:18;13.70;;;3.20;;
6850;SDS011;3464;42.728;23.296;2022-07-17T12:17:07;12.60;;;3.30;;
6850;SDS011;3464;42.728;23.296;2022-07-17T12:20:02;9.87;;;3.37;;
6850;SDS011;3464;42.728;23.296;2022-07-17T12:22:47;13.30;;;3.40;;
6850;SDS011;3464;42.728;23.296;2022-07-17T12:25:40;11.97;;;3.10;;
6850;SDS011;3464;42.728;23.296;2022-07-17T12:28:30;13.13;;;3.40;;
6850;SDS011;3464;42.728;23.296;2022-07-17T12:31:19;10.50;;;2.90;;
6850;SDS011;3464;42.728;23.296;2022-07-17T12:34:08;10.50;;;3.20;;
6850;SDS011;3464;42.728;23.296;2022-07-17T12:36:57;10.27;;;3.20;;
6850;SDS011;3464;42.728;23.296;2022-07-17T12:39:48;17.83;;;3.73;;
6850;SDS011;3464;42.728;23.296;2022-07-17T12:42:42;10.80;;;3.33;;
6850;SDS011;3464;42.728;23.296;2022-07-17T12:45:35;13.40;;;3.60;;
6850;SDS011;3464;42.728;23.296;2022-07-17T12:48:27;11.20;;;3.73;;
6850;SDS011;3464;42.728;23.296;2022-07-17T12:51:18;9.90;;;3.40;;
6850;SDS011;3464;42.728;23.296;2022-07-17T12:54:08;11.00;;;3.47;;
6850;SDS011;3464;42.728;23.296;2022-07-17T12:56:59;11.10;;;3.30;;
6850;SDS011;3464;42.728;23.296;2022-07-17T12:59:54;11.57;;;3.30;;
6850;SDS011;3464;42.728;23.296;2022-07-17T13:02:45;12.37;;;4.03;;
6850;SDS011;3464;42.728;23.296;2022-07-17T13:05:39;12.10;;;3.30;;
6850;SDS011;3464;42.728;23.296;2022-07-17T13:08:30;12.40;;;3.77;;
6850;SDS011;3464;42.728;23.296;2022-07-17T13:11:22;15.20;;;4.07;;
6850;SDS011;3464;42.728;23.296;2022-07-17T13:14:17;15.00;;;3.50;;
6850;SDS011;3464;42.728;23.296;2022-07-17T13:17:10;13.00;;;3.30;;
6850;SDS011;3464;42.728;23.296;2022-07-17T13:19:59;12.63;;;4.00;;
6850;SDS011;3464;42.728;23.296;2022-07-17T13:22:50;12.73;;;3.10;;
6850;SDS011;3464;42.728;23.296;2022-07-17T13:25:39;11.63;;;3.23;;
6850;SDS011;3464;42.728;23.296;2022-07-17T13:28:28;11.60;;;3.37;;
6850;SDS011;3464;42.728;23.296;2022-07-17T13:31:19;10.40;;;3.13;;
6850;SDS011;3464;42.728;23.296;2022-07-17T13:34:12;12.03;;;3.53;;
6850;SDS011;3464;42.728;23.296;2022-07-17T13:37:01;17.43;;;3.07;;
6850;SDS011;3464;42.728;23.296;2022-07-17T13:39:54;12.20;;;3.53;;
6850;SDS011;3464;42.728;23.296;2022-07-17T13:42:43;11.40;;;3.23;;
6850;SDS011;3464;42.728;23.296;2022-07-17T13:45:34;10.40;;;3.60;;
6850;SDS011;3464;42.728;23.296;2022-07-17T13:48:24;11.70;;;3.43;;
6850;SDS011;3464;42.728;23.296;2022-07-17T13:54:13;12.37;;;3.30;;
6850;SDS011;3464;42.728;23.296;2022-07-17T13:57:04;11.07;;;2.93;;
6850;SDS011;3464;42.728;23.296;2022-07-17T13:59:53;11.07;;;3.70;;
6850;SDS011;3464;42.728;23.296;2022-07-17T14:02:44;14.60;;;4.73;;
6850;SDS011;3464;42.728;23.296;2022-07-17T14:05:33;11.77;;;4.30;;
6850;SDS011;3464;42.728;23.296;2022-07-17T14:08:23;11.07;;;4.10;;
6850;SDS011;3464;42.728;23.296;2022-07-17T14:11:13;12.83;;;4.53;;
6850;SDS011;3464;42.728;23.296;2022-07-17T14:14:03;10.87;;;3.63;;
6850;SDS011;3464;42.728;23.296;2022-07-17T14:16:52;12.90;;;4.37;;
6850;SDS011;3464;42.728;23.296;2022-07-17T14:19:44;10.60;;;3.97;;
6850;SDS011;3464;42.728;23.296;2022-07-17T14:22:35;10.57;;;3.60;;
6850;SDS011;3464;42.728;23.296;2022-07-17T14:25:25;11.80;;;3.47;;
6850;SDS011;3464;42.728;23.296;2022-07-17T14:28:14;13.93;;;3.80;;
6850;SDS011;3464;42.728;23.296;2022-07-17T14:31:03;15.27;;;3.83;;
6850;SDS011;3464;42.728;23.296;2022-07-17T14:33:52;12.47;;;3.90;;
6850;SDS011;3464;42.728;23.296;2022-07-17T14:36:42;11.63;;;3.80;;
6850;SDS011;3464;42.728;23.296;2022-07-17T14:39:32;10.40;;;3.40;;
6850;SDS011;3464;42.728;23.296;2022-07-17T14:42:21;11.27;;;4.40;;
6850;SDS011;3464;42.728;23.296;2022-07-17T14:45:11;14.70;;;3.73;;
6850;SDS011;3464;42.728;23.296;2022-07-17T14:48:00;10.20;;;3.50;;
6850;SDS011;3464;42.728;23.296;2022-07-17T14:50:49;12.50;;;3.70;;
6850;SDS011;3464;42.728;23.296;2022-07-17T14:53:39;14.23;;;4.10;;
6850;SDS011;3464;42.728;23.296;2022-07-17T14:56:28;11.17;;;3.90;;
6850;SDS011;3464;42.728;23.296;2022-07-17T14:59:17;13.33;;;4.03;;
6850;SDS011;3464;42.728;23.296;2022-07-17T15:02:08;12.43;;;4.10;;
6850;SDS011;3464;42.728;23.296;2022-07-17T15:04:57;13.90;;;4.00;;
6850;SDS011;3464;42.728;23.296;2022-07-17T15:07:47;15.60;;;4.00;;
6850;SDS011;3464;42.728;23.296;2022-07-17T15:10:37;19.03;;;4.33;;
6850;SDS011;3464;42.728;23.296;2022-07-17T15:13:28;11.30;;;4.00;;
6850;SDS011;3464;42.728;23.296;2022-07-17T15:16:18;12.27;;;4.37;;
6850;SDS011;3464;42.728;23.296;2022-07-17T15:19:08;14.27;;;4.67;;
6850;SDS011;3464;42.728;23.296;2022-07-17T15:22:00;15.20;;;4.30;;
6850;SDS011;3464;42.728;23.296;2022-07-17T15:24:48;12.57;;;4.23;;
6850;SDS011;3464;42.728;23.296;2022-07-17T15:27:38;15.87;;;4.70;;
6850;SDS011;3464;42.728;23.296;2022-07-17T15:30:28;12.20;;;4.17;;
6850;SDS011;3464;42.728;23.296;2022-07-17T15:33:18;12.40;;;4.10;;
6850;SDS011;3464;42.728;23.296;2022-07-17T15:36:08;14.13;;;4.10;;
6850;SDS011;3464;42.728;23.296;2022-07-17T15:38:58;12.90;;;4.30;;
6850;SDS011;3464;42.728;23.296;2022-07-17T15:41:46;10.47;;;3.80;;
6850;SDS011;3464;42.728;23.296;2022-07-17T15:44:35;12.03;;;3.73;;
6850;SDS011;3464;42.728;23.296;2022-07-17T15:47:24;11.07;;;3.70;;
6850;SDS011;3464;42.728;23.296;2022-07-17T15:50:15;10.83;;;3.80;;
6850;SDS011;3464;42.728;23.296;2022-07-17T15:53:04;10.67;;;3.77;;
6850;SDS011;3464;42.728;23.296;2022-07-17T15:55:55;10.30;;;3.70;;
6850;SDS011;3464;42.728;23.296;2022-07-17T15:58:46;13.17;;;3.97;;
6850;SDS011;3464;42.728;23.296;2022-07-17T16:01:37;11.20;;;3.77;;
6850;SDS011;3464;42.728;23.296;2022-07-17T16:04:27;12.23;;;3.70;;
6850;SDS011;3464;42.728;23.296;2022-07-17T16:07:17;13.03;;;3.20;;
6850;SDS011;3464;42.728;23.296;2022-07-17T16:10:07;12.37;;;4.00;;
6850;SDS011;3464;42.728;23.296;2022-07-17T16:12:57;10.30;;;3.47;;
6850;SDS011;3464;42.728;23.296;2022-07-17T16:15:50;12.97;;;3.77;;
6850;SDS011;3464;42.728;23.296;2022-07-17T16:18:40;13.40;;;3.60;;
6850;SDS011;3464;42.728;23.296;2022-07-17T16:21:30;11.37;;;3.40;;
6850;SDS011;3464;42.728;23.296;2022-07-17T16:24:20;10.80;;;3.73;;
6850;SDS011;3464;42.728;23.296;2022-07-17T16:27:10;9.80;;;3.37;;
6850;SDS011;3464;42.728;23.296;2022-07-17T16:29:59;20.10;;;3.93;;
6850;SDS011;3464;42.728;23.296;2022-07-17T16:32:50;10.50;;;4.00;;
6850;SDS011;3464;42.728;23.296;2022-07-17T16:35:39;12.20;;;3.63;;
6850;SDS011;3464;42.728;23.296;2022-07-17T16:38:29;12.53;;;3.37;;
6850;SDS011;3464;42.728;23.296;2022-07-17T16:41:19;10.70;;;2.87;;
6850;SDS011;3464;42.728;23.296;2022-07-17T16:44:09;13.00;;;3.83;;
6850;SDS011;3464;42.728;23.296;2022-07-17T16:46:59;11.23;;;3.43;;
6850;SDS011;3464;42.728;23.296;2022-07-17T16:49:49;12.53;;;3.70;;
6850;SDS011;3464;42.728;23.296;2022-07-17T16:52:40;11.60;;;4.03;;
6850;SDS011;3464;42.728;23.296;2022-07-17T16:55:29;10.80;;;4.10;;
6850;SDS011;3464;42.728;23.296;2022-07-17T16:58:19;12.73;;;3.33;;
6850;SDS011;3464;42.728;23.296;2022-07-17T17:01:08;9.27;;;2.90;;
6850;SDS011;3464;42.728;23.296;2022-07-17T17:03:58;11.80;;;3.27;;
6850;SDS011;3464;42.728;23.296;2022-07-17T17:06:47;14.17;;;3.90;;
6850;SDS011;3464;42.728;23.296;2022-07-17T17:09:36;14.30;;;3.20;;
6850;SDS011;3464;42.728;23.296;2022-07-17T17:12:24;11.50;;;3.47;;
6850;SDS011;3464;42.728;23.296;2022-07-17T17:15:14;13.33;;;3.60;;
6850;SDS011;3464;42.728;23.296;2022-07-17T17:18:04;9.60;;;2.90;;
6850;SDS011;3464;42.728;23.296;2022-07-17T17:20:54;14.73;;;3.43;;
6850;SDS011;3464;42.728;23.296;2022-07-17T17:23:45;12.70;;;3.53;;
6850;SDS011;3464;42.728;23.296;2022-07-17T17:26:35;12.03;;;3.73;;